Time;durP1;ratioP1;P1;durP2;ratioP2;P2;SDS_P1;SDS_P2;PMS_P1;PMS_P2;Temp;Humidity;BMP_temperature;BMP_pressure;BME280_temperature;BME280_humidity;BME280_pressure;Samples;Min_cycle;Max_cycle;Signal;HPM_P1;HPM_P2
2022/07/06 00:02:05;;;;;;;27.27;21.05;;;;;;;26.79;47.75;99264.19;5042122;28;20043;-69
2022/07/06 00:04:31;;;;;;;31.05;22.52;;;;;;;26.76;47.89;99264.72;5075409;28;20032;-67
2022/07/06 00:06:57;;;;;;;29.08;21.85;;;;;;;26.71;47.79;99272.94;5059126;28;20048;-67
2022/07/06 00:09:23;;;;;;;24.40;21.52;;;;;;;26.46;48.50;99265.50;5058752;28;20492;-67
2022/07/06 00:11:48;;;;;;;29.23;23.33;;;;;;;26.54;48.37;99270.41;5092001;28;20054;-69
2022/07/06 00:14:14;;;;;;;38.85;26.08;;;;;;;26.64;47.96;99270.47;5057056;28;20052;-67
2022/07/06 00:16:43;;;;;;;48.70;29.23;;;;;;;26.58;47.95;99267.97;5057398;28;20078;-68
2022/07/06 00:19:08;;;;;;;45.22;29.30;;;;;;;26.58;47.88;99251.63;5056759;28;20048;-68
2022/07/06 00:21:34;;;;;;;29.27;21.73;;;;;;;26.68;47.96;99259.84;5073380;28;20047;-69
2022/07/06 00:24:00;;;;;;;31.90;22.92;;;;;;;26.72;47.72;99247.31;5073119;28;20397;-68
2022/07/06 00:26:26;;;;;;;42.97;28.08;;;;;;;26.71;47.44;99251.13;5024165;28;20472;-67
2022/07/06 00:28:54;;;;;;;34.83;23.65;;;;;;;26.70;48.15;99249.47;5056535;28;20044;-68
2022/07/06 00:31:20;;;;;;;31.20;22.83;;;;;;;26.73;47.71;99252.47;5075532;28;20044;-68
2022/07/06 00:33:45;;;;;;;29.48;23.05;;;;;;;26.79;47.35;99253.28;5058679;28;20044;-68
2022/07/06 00:36:11;;;;;;;36.72;25.40;;;;;;;26.80;47.27;99254.94;5058412;28;20499;-68
2022/07/06 00:38:37;;;;;;;32.42;24.45;;;;;;;26.82;47.38;99250.03;5041625;28;20063;-68
2022/07/06 00:41:03;;;;;;;32.08;24.48;;;;;;;26.82;47.27;99250.03;5075215;28;20044;-68
2022/07/06 00:43:48;;;;;;;37.03;26.73;;;;;;;27.04;47.18;99245.94;5058793;28;20096;-69
2022/07/06 00:46:14;;;;;;;34.47;25.63;;;;;;;26.84;47.35;99256.03;5058450;28;20646;-67
2022/07/06 00:48:40;;;;;;;38.25;28.50;;;;;;;26.78;47.50;99257.13;5041738;28;20142;-68
2022/07/06 00:51:05;;;;;;;38.35;28.17;;;;;;;26.57;47.56;99225.47;5025147;28;20085;-68
2022/07/06 00:53:31;;;;;;;62.13;34.88;;;;;;;26.74;47.48;99253.31;5041455;28;20080;-67
2022/07/06 00:55:57;;;;;;;83.75;47.85;;;;;;;26.68;47.37;99249.75;5041645;28;20097;-67
2022/07/06 00:58:23;;;;;;;83.95;46.08;;;;;;;26.71;47.69;99271.00;5041086;28;20036;-67
2022/07/06 01:00:49;;;;;;;83.68;44.88;;;;;;;26.73;47.44;99260.66;5057141;28;20051;-67
2022/07/06 01:03:15;;;;;;;70.10;43.17;;;;;;;26.76;47.49;99267.47;5074462;28;20048;-68
2022/07/06 01:05:40;;;;;;;67.30;40.10;;;;;;;26.73;47.75;99270.72;5041129;28;20073;-68
2022/07/06 01:08:06;;;;;;;67.82;40.30;;;;;;;26.75;47.57;99263.09;5057579;28;20083;-68
2022/07/06 01:10:32;;;;;;;67.22;38.58;;;;;;;26.78;47.35;99263.38;5057679;28;20044;-67
2022/07/06 01:12:58;;;;;;;66.53;37.80;;;;;;;26.80;47.31;99266.63;5041090;28;20449;-66
2022/07/06 01:15:25;;;;;;;54.58;32.75;;;;;;;26.91;47.08;99264.75;5057714;28;20044;-67
2022/07/06 01:17:52;;;;;;;66.38;36.97;;;;;;;26.90;47.12;99260.38;5057483;28;20055;-68
2022/07/06 01:20:23;;;;;;;72.03;36.70;;;;;;;27.00;46.58;99257.66;5074318;28;20093;-67
2022/07/06 01:22:50;;;;;;;73.40;39.83;;;;;;;27.07;46.39;99260.94;5074231;28;20047;-67
2022/07/06 01:25:16;;;;;;;64.22;37.30;;;;;;;26.97;46.49;99256.28;5092062;28;20049;-68
2022/07/06 01:27:42;;;;;;;76.80;41.55;;;;;;;27.01;46.38;99265.56;5057451;28;20074;-68
2022/07/06 01:30:14;;;;;;;90.50;47.50;;;;;;;26.97;46.25;99250.03;5090868;28;20044;-67
2022/07/06 01:32:40;;;;;;;84.55;47.10;;;;;;;26.97;46.85;99261.75;5073782;28;20058;-67
2022/07/06 01:35:09;;;;;;;80.07;45.58;;;;;;;26.91;47.15;99232.06;5056944;28;20044;-68
2022/07/06 01:37:35;;;;;;;108.20;53.38;;;;;;;26.90;47.29;99261.22;5073726;28;20054;-68
2022/07/06 01:40:02;;;;;;;88.45;48.28;;;;;;;26.91;47.00;99248.41;5057105;28;20123;-67
2022/07/06 01:42:30;;;;;;;81.72;45.72;;;;;;;26.70;47.35;99233.13;5073855;28;20511;-68
2022/07/06 01:44:56;;;;;;;60.22;38.08;;;;;;;26.89;47.12;99269.66;5090724;28;20503;-67
2022/07/06 01:47:22;;;;;;;70.18;38.83;;;;;;;26.88;47.42;99257.94;5073902;28;20051;-67
2022/07/06 01:49:50;;;;;;;66.30;37.30;;;;;;;26.91;47.31;99262.03;5091496;28;20070;-67
2022/07/06 01:52:16;;;;;;;65.38;35.10;;;;;;;26.92;47.17;99272.66;5056848;28;20044;-68
2022/07/06 01:54:42;;;;;;;48.00;30.80;;;;;;;26.85;47.53;99274.03;5057059;28;20090;-67
2022/07/06 01:57:07;;;;;;;43.95;29.40;;;;;;;26.82;47.19;99282.72;5056780;28;20184;-67
2022/07/06 01:59:33;;;;;;;38.53;27.63;;;;;;;26.61;48.20;99281.03;5091742;28;20130;-67
2022/07/06 02:01:59;;;;;;;35.05;27.40;;;;;;;26.39;48.07;99273.94;5056748;28;20491;-67
2022/07/06 02:04:25;;;;;;;34.55;26.48;;;;;;;26.29;48.77;99282.06;5073422;28;20071;-67
2022/07/06 02:06:51;;;;;;;39.92;27.77;;;;;;;26.16;49.13;99271.69;5073603;28;20167;-67
2022/07/06 02:09:18;;;;;;;38.42;26.95;;;;;;;25.93;49.28;99252.25;5056914;28;20487;-67
2022/07/06 02:11:43;;;;;;;37.22;25.75;;;;;;;25.97;49.37;99254.16;5039791;28;20044;-67
2022/07/06 02:14:10;;;;;;;37.88;27.15;;;;;;;26.16;49.42;99276.31;5056712;28;20044;-67
2022/07/06 02:16:38;;;;;;;37.35;26.38;;;;;;;26.20;49.36;99275.50;5053475;28;20106;-67
2022/07/06 02:19:04;;;;;;;37.72;27.27;;;;;;;26.26;49.11;99279.06;5053265;28;20512;-67
2022/07/06 02:21:29;;;;;;;34.90;26.45;;;;;;;26.29;48.89;99283.97;5020050;28;20504;-66
2022/07/06 02:23:55;;;;;;;38.13;28.17;;;;;;;26.34;48.88;99279.34;5036420;28;20133;-67
2022/07/06 02:26:21;;;;;;;32.25;25.25;;;;;;;26.32;49.14;99286.97;5036801;28;20053;-66
2022/07/06 02:28:48;;;;;;;33.40;26.63;;;;;;;26.27;48.89;99272.53;5019865;28;20071;-67
2022/07/06 02:31:15;;;;;;;36.17;25.20;;;;;;;26.54;48.50;99277.78;5053004;28;20515;-67
2022/07/06 02:33:43;;;;;;;38.75;26.30;;;;;;;26.74;47.92;99288.72;5069562;28;20076;-67
2022/07/06 02:36:10;;;;;;;36.05;24.00;;;;;;;26.88;47.58;99287.13;5069545;28;20033;-67
2022/07/06 02:38:36;;;;;;;29.75;23.23;;;;;;;27.01;47.27;99289.28;5052998;28;20044;-67
2022/07/06 02:41:02;;;;;;;30.45;22.80;;;;;;;27.11;46.80;99281.91;5036509;28;20074;-68
2022/07/06 02:43:28;;;;;;;31.88;21.60;;;;;;;27.17;46.79;99289.00;5069387;28;20048;-66
2022/07/06 02:45:54;;;;;;;26.35;21.42;;;;;;;27.23;46.61;99287.09;5069381;28;20082;-67
2022/07/06 02:48:21;;;;;;;27.70;20.45;;;;;;;27.33;46.39;99289.84;5036221;28;20040;-67
2022/07/06 02:50:49;;;;;;;27.85;21.10;;;;;;;27.37;46.21;99280.81;5052781;28;20139;-67
2022/07/06 02:53:15;;;;;;;36.47;22.98;;;;;;;27.42;46.03;99291.75;5035930;28;20472;-69
2022/07/06 02:55:41;;;;;;;31.30;22.40;;;;;;;27.45;46.29;99290.34;5069449;28;20029;-67
2022/07/06 02:58:14;;;;;;;28.48;22.85;;;;;;;27.62;46.06;99299.88;5052691;28;20059;-68
2022/07/06 03:00:40;;;;;;;31.92;22.98;;;;;;;27.46;46.18;99289.28;5069240;28;20154;-67
2022/07/06 03:03:07;;;;;;;31.52;24.30;;;;;;;27.44;46.00;99294.19;5052958;28;20044;-67
2022/07/06 03:05:33;;;;;;;27.65;22.02;;;;;;;27.49;45.90;99294.97;5070814;28;20252;-67
2022/07/06 03:07:59;;;;;;;27.77;22.30;;;;;;;27.40;45.28;99260.38;5086165;28;20647;-67
2022/07/06 03:10:25;;;;;;;26.95;22.02;;;;;;;27.72;45.35;99290.84;5069885;28;20071;-67
2022/07/06 03:12:50;;;;;;;29.77;22.92;;;;;;;27.78;45.31;99292.47;5069875;28;20109;-67
2022/07/06 03:15:16;;;;;;;29.00;23.08;;;;;;;27.84;45.25;99299.56;5020015;28;20048;-66
2022/07/06 03:17:45;;;;;;;30.25;22.17;;;;;;;27.83;45.64;99295.19;5069146;28;20057;-67
2022/07/06 03:20:12;;;;;;;27.10;22.70;;;;;;;27.89;44.79;99297.63;5069077;28;20037;-67
2022/07/06 03:22:39;;;;;;;29.58;22.33;;;;;;;27.93;44.74;99298.75;5037366;28;20127;-67
2022/07/06 03:25:05;;;;;;;36.58;22.15;;;;;;;27.93;45.06;99287.00;5039981;28;20419;-67
2022/07/06 03:27:33;;;;;;;32.72;22.15;;;;;;;27.92;44.84;99288.88;5040338;28;20040;-67
2022/07/06 03:30:02;;;;;;;27.17;21.55;;;;;;;28.06;45.02;99285.56;5056208;28;20067;-67
2022/07/06 03:32:29;;;;;;;32.58;22.80;;;;;;;28.15;44.53;99282.00;5056464;28;20106;-67
2022/07/06 03:34:55;;;;;;;26.05;20.63;;;;;;;28.19;44.63;99277.59;5056565;28;20052;-66
2022/07/06 03:37:22;;;;;;;26.73;20.35;;;;;;;28.25;44.59;99286.59;5056311;28;20139;-66
2022/07/06 03:39:48;;;;;;;28.45;21.90;;;;;;;28.33;44.44;99291.44;5056354;28;20135;-67
2022/07/06 03:42:13;;;;;;;33.28;21.20;;;;;;;28.37;44.60;99293.31;5056081;28;20082;-67
2022/07/06 03:44:40;;;;;;;30.95;22.98;;;;;;;28.39;44.78;99285.69;5056571;28;20044;-68
2022/07/06 03:47:06;;;;;;;28.00;21.95;;;;;;;28.40;44.73;99286.50;5056023;28;20105;-67
2022/07/06 03:49:32;;;;;;;36.33;24.95;;;;;;;28.36;44.38;99269.03;5056025;28;20048;-66
2022/07/06 03:52:00;;;;;;;33.20;23.50;;;;;;;28.39;43.94;99284.84;5056285;28;20098;-67
2022/07/06 03:54:28;;;;;;;39.33;26.10;;;;;;;28.52;44.32;99292.47;5072432;28;20048;-67
2022/07/06 03:56:57;;;;;;;33.97;25.17;;;;;;;28.60;44.06;99291.88;5072206;28;20217;-67
2022/07/06 03:59:23;;;;;;;40.38;26.67;;;;;;;28.70;43.89;99286.31;5025411;28;20494;-67
2022/07/06 04:01:49;;;;;;;38.20;26.35;;;;;;;28.73;43.99;99291.22;5039213;28;20035;-67
2022/07/06 04:04:17;;;;;;;35.00;25.70;;;;;;;28.77;43.73;99298.56;5062605;28;20040;-68
2022/07/06 04:06:45;;;;;;;41.42;26.77;;;;;;;28.87;43.90;99301.25;5072713;28;20072;-67
2022/07/06 04:09:11;;;;;;;35.88;25.67;;;;;;;28.71;43.92;99268.81;5072369;28;20079;-67
2022/07/06 04:11:38;;;;;;;36.58;24.92;;;;;;;28.87;43.70;99293.03;5039584;28;20139;-67
2022/07/06 04:14:04;;;;;;;36.30;24.60;;;;;;;28.97;43.56;99301.16;5056030;28;20037;-67
2022/07/06 04:16:30;;;;;;;32.95;25.55;;;;;;;28.95;44.08;99299.81;5038795;28;20060;-67
2022/07/06 04:18:57;;;;;;;35.55;26.35;;;;;;;28.88;44.42;99296.56;5072137;28;20059;-67
2022/07/06 04:21:23;;;;;;;32.65;24.65;;;;;;;28.95;44.37;99295.19;5055507;28;20051;-67
2022/07/06 04:23:49;;;;;;;37.40;25.00;;;;;;;28.96;43.69;99294.06;5072132;28;20126;-67
2022/07/06 04:26:15;;;;;;;29.75;24.73;;;;;;;28.91;43.50;99274.94;5038693;28;20140;-67
2022/07/06 04:28:41;;;;;;;32.10;24.13;;;;;;;29.05;43.55;99295.13;5055435;28;20102;-68
2022/07/06 04:31:07;;;;;;;30.70;25.75;;;;;;;28.96;43.29;99283.13;5055277;28;20044;-68
2022/07/06 04:33:34;;;;;;;29.83;24.85;;;;;;;29.16;43.42;99296.66;5038646;28;20044;-67
2022/07/06 04:35:59;;;;;;;33.25;24.95;;;;;;;29.06;42.94;99280.31;5071888;28;20047;-67
2022/07/06 04:38:34;;;;;;;39.38;25.27;;;;;;;29.22;42.85;99298.25;5071407;28;20059;-67
2022/07/06 04:41:03;;;;;;;30.83;23.58;;;;;;;29.37;42.63;99284.41;5088579;28;20079;-69
2022/07/06 04:43:29;;;;;;;35.00;24.15;;;;;;;29.40;42.87;99289.31;5071622;28;20095;-68
2022/07/06 04:45:55;;;;;;;35.22;24.83;;;;;;;29.51;42.51;99290.84;5038270;28;20048;-67
2022/07/06 04:48:21;;;;;;;33.10;23.95;;;;;;;29.59;42.60;99287.50;5055020;28;20105;-68
2022/07/06 04:50:48;;;;;;;30.73;24.27;;;;;;;29.76;42.40;99288.97;5038641;28;20127;-68
2022/07/06 04:53:19;;;;;;;35.17;23.27;;;;;;;29.82;42.21;99291.38;5055423;28;20098;-67
2022/07/06 04:55:46;;;;;;;33.42;23.60;;;;;;;29.88;42.35;99294.84;5083170;28;20412;-73
2022/07/06 04:58:12;;;;;;;31.45;23.45;;;;;;;29.89;42.41;99288.28;5070447;28;20037;-72
2022/07/06 05:00:38;;;;;;;36.33;23.73;;;;;;;30.32;42.07;99290.75;5053379;28;20048;-72
2022/07/06 05:03:04;;;;;;;35.38;22.45;;;;;;;30.73;40.86;99301.97;5036911;28;20040;-72
2022/07/06 05:05:30;;;;;;;32.80;21.40;;;;;;;31.45;39.47;99295.06;5052789;28;20043;-71
2022/07/06 05:07:57;;;;;;;31.88;21.85;;;;;;;31.86;38.62;99279.47;5053443;28;20526;-72
2022/07/06 05:10:24;;;;;;;31.20;21.65;;;;;;;32.26;37.51;99293.16;5036050;28;20070;-72
2022/07/06 05:12:55;;;;;;;30.50;21.30;;;;;;;32.55;36.96;99285.41;5053165;28;20129;-71
2022/07/06 05:15:21;;;;;;;33.95;21.83;;;;;;;32.84;36.71;99289.69;5053191;28;20079;-71
2022/07/06 05:17:46;;;;;;;37.38;21.77;;;;;;;33.00;36.37;99288.25;5069770;28;20133;-72
2022/07/06 05:20:16;;;;;;;27.13;20.75;;;;;;;33.28;35.80;99289.72;5069768;28;20067;-71
2022/07/06 05:22:44;;;;;;;32.95;22.10;;;;;;;33.23;35.89;99278.84;5071457;28;20052;-71
2022/07/06 05:25:10;;;;;;;33.35;20.70;;;;;;;33.25;35.70;99279.31;5069593;28;20128;-71
2022/07/06 05:27:38;;;;;;;29.95;20.90;;;;;;;33.30;35.50;99260.75;5053321;28;20051;-71
2022/07/06 05:30:05;;;;;;;29.77;21.17;;;;;;;33.52;35.49;99276.44;5052989;28;20432;-71
2022/07/06 05:32:31;;;;;;;35.25;20.90;;;;;;;33.59;35.16;99282.31;5053223;28;20046;-72
2022/07/06 05:34:58;;;;;;;33.03;21.10;;;;;;;33.63;35.23;99277.81;5069277;28;20048;-71
2022/07/06 05:37:24;;;;;;;27.98;20.98;;;;;;;33.62;34.99;99273.41;5069564;28;20101;-69
2022/07/06 05:39:50;;;;;;;32.50;20.77;;;;;;;33.78;34.88;99266.34;5069236;28;20052;-72
2022/07/06 05:42:16;;;;;;;28.38;20.52;;;;;;;33.91;34.52;99269.03;5081820;28;20138;-72
2022/07/06 05:44:44;;;;;;;28.05;20.17;;;;;;;34.01;34.38;99270.69;5065088;28;20527;-72
2022/07/06 05:50:12;;;;;;;27.98;19.00;;;;;;;34.20;33.33;99284.97;5075044;28;20435;-73
2022/07/06 05:52:42;;;;;;;27.13;18.48;;;;;;;34.62;32.85;99278.75;5051933;28;20540;-73
2022/07/06 05:55:09;;;;;;;25.20;18.60;;;;;;;34.76;32.67;99284.09;5052186;28;20084;-70
2022/07/06 05:57:36;;;;;;;24.48;17.13;;;;;;;34.91;32.29;99294.69;5068845;28;20082;-76
2022/07/06 06:00:03;;;;;;;25.45;16.90;;;;;;;35.25;31.64;99283.59;5069971;28;20040;-73
2022/07/06 06:02:38;;;;;;;23.85;17.02;;;;;;;35.60;30.69;99269.41;5053029;28;20051;-72
2022/07/06 06:05:09;;;;;;;25.42;17.08;;;;;;;35.87;30.14;99275.66;5068814;28;20047;-72
2022/07/06 06:07:35;;;;;;;21.63;16.10;;;;;;;35.91;30.41;99269.13;5035658;28;20040;-72
2022/07/06 06:10:04;;;;;;;22.92;15.52;;;;;;;36.11;30.21;99273.06;5068939;28;20048;-71
2022/07/06 06:12:29;;;;;;;26.10;17.00;;;;;;;36.03;29.87;99271.97;5034634;28;20041;-73
2022/07/06 06:14:55;;;;;;;26.17;15.98;;;;;;;35.71;29.88;99280.88;5035889;28;20377;-73
2022/07/06 06:17:21;;;;;;;22.60;16.33;;;;;;;35.81;30.05;99263.94;5051862;28;20064;-70
2022/07/06 06:19:47;;;;;;;28.35;14.43;;;;;;;35.91;29.80;99262.78;5018095;28;20058;-73
2022/07/06 06:22:13;;;;;;;22.38;15.65;;;;;;;36.15;29.51;99254.69;5067931;28;20055;-70
2022/07/06 06:24:39;;;;;;;29.35;15.43;;;;;;;36.33;29.67;99278.34;5067917;28;20052;-71
2022/07/06 06:27:05;;;;;;;23.17;15.55;;;;;;;36.30;30.13;99273.50;5039413;28;20052;-72
2022/07/06 06:29:31;;;;;;;32.22;15.65;;;;;;;36.26;29.71;99278.84;5072185;28;20412;-71
2022/07/06 06:31:57;;;;;;;20.90;13.32;;;;;;;36.34;29.45;99271.66;5075019;28;20036;-72
2022/07/06 06:34:22;;;;;;;25.58;16.40;;;;;;;36.29;29.50;99267.13;5074811;28;20591;-71
2022/07/06 06:36:48;;;;;;;25.48;15.27;;;;;;;36.53;29.60;99274.78;5075122;28;20048;-72
2022/07/06 06:39:14;;;;;;;19.27;14.90;;;;;;;36.41;29.58;99267.22;5073665;28;20044;-71
2022/07/06 06:41:40;;;;;;;25.05;15.13;;;;;;;36.37;29.82;99271.81;5075971;28;20067;-69
2022/07/06 06:44:05;;;;;;;20.05;13.90;;;;;;;36.23;29.77;99265.69;5044605;28;20093;-73
2022/07/06 06:46:39;;;;;;;16.85;12.77;;;;;;;36.31;29.74;99245.50;5092888;28;20443;-72
2022/07/06 06:49:05;;;;;;;19.63;13.57;;;;;;;36.58;28.97;99258.78;5042616;28;20871;-72
2022/07/06 06:51:32;;;;;;;19.75;13.35;;;;;;;36.80;28.89;99263.19;5066641;28;20077;-72
2022/07/06 06:53:57;;;;;;;17.63;13.77;;;;;;;36.55;28.44;99251.16;5095376;28;20036;-72
2022/07/06 06:56:23;;;;;;;18.85;12.38;;;;;;;36.74;29.07;99268.09;5076653;28;20045;-70
2022/07/06 06:58:49;;;;;;;15.70;11.75;;;;;;;36.79;28.08;99262.41;5074521;28;20488;-70
2022/07/06 07:01:15;;;;;;;20.20;11.98;;;;;;;36.97;28.42;99265.81;5043953;28;20085;-71
2022/07/06 07:03:43;;;;;;;22.00;12.35;;;;;;;37.05;27.87;99264.91;5029009;28;20044;-72
2022/07/06 07:06:09;;;;;;;20.60;12.57;;;;;;;36.71;28.05;99243.06;5066818;28;20051;-70
2022/07/06 07:08:34;;;;;;;17.02;13.27;;;;;;;37.07;27.85;99257.09;5067051;28;20048;-71
2022/07/06 07:11:00;;;;;;;22.42;12.98;;;;;;;37.26;27.45;99265.69;5048454;28;20047;-68
2022/07/06 07:13:26;;;;;;;17.90;12.65;;;;;;;37.57;27.43;99271.53;5075078;28;20048;-69
2022/07/06 07:15:54;;;;;;;19.20;12.82;;;;;;;37.89;26.72;99247.69;5082862;28;20064;-69
2022/07/06 07:18:20;;;;;;;24.10;12.52;;;;;;;38.18;25.92;99262.13;5020165;28;1350517;-72
2022/07/06 07:20:46;;;;;;;29.50;15.00;;;;;;;38.22;25.87;99268.63;5060312;28;20044;-72
2022/07/06 07:23:12;;;;;;;18.05;13.45;;;;;;;38.02;25.52;99257.63;5068808;28;20068;-70
2022/07/06 07:25:39;;;;;;;18.98;12.50;;;;;;;38.49;25.33;99276.19;5066312;28;20032;-69
2022/07/06 07:28:05;;;;;;;18.00;12.25;;;;;;;38.86;25.17;99270.59;5078791;28;20055;-71
2022/07/06 07:30:31;;;;;;;23.27;14.63;;;;;;;39.20;24.93;99279.13;5060393;28;20045;-71
2022/07/06 07:32:56;;;;;;;23.45;13.75;;;;;;;39.56;24.54;99273.38;5070539;28;20040;-71
2022/07/06 07:35:23;;;;;;;18.10;11.95;;;;;;;40.26;23.44;99263.22;5076458;28;20033;-71
2022/07/06 07:37:51;;;;;;;19.05;11.88;;;;;;;40.76;23.01;99263.19;5068067;28;20043;-70
2022/07/06 07:40:17;;;;;;;13.15;11.02;;;;;;;41.35;21.96;99269.16;5025150;28;20025;-68
2022/07/06 07:42:43;;;;;;;29.70;11.25;;;;;;;42.23;21.05;99270.69;5078869;28;20043;-70
2022/07/06 07:45:09;;;;;;;25.83;11.13;;;;;;;43.43;20.19;99267.50;5075431;28;20033;-70
2022/07/06 07:47:35;;;;;;;17.48;11.20;;;;;;;44.27;18.86;99268.28;5076921;28;20040;-69
2022/07/06 07:50:01;;;;;;;19.48;10.70;;;;;;;45.65;17.39;99258.44;5067694;28;20037;-71
2022/07/06 07:52:29;;;;;;;17.65;11.27;;;;;;;47.46;16.42;99267.59;5077684;28;20036;-70
2022/07/06 07:54:54;;;;;;;23.00;11.48;;;;;;;48.44;14.90;99265.19;5076770;28;20041;-70
2022/07/06 07:57:20;;;;;;;18.10;9.35;;;;;;;49.64;13.71;99270.06;5075144;28;20144;-71
2022/07/06 07:59:46;;;;;;;13.20;7.68;;;;;;;49.45;12.75;99254.63;5078595;28;20048;-73
2022/07/06 08:02:11;;;;;;;11.30;7.13;;;;;;;49.75;12.97;99267.91;5083780;28;20557;-70
2022/07/06 08:04:40;;;;;;;9.98;6.88;;;;;;;48.78;12.75;99263.19;5066271;28;20497;-71
2022/07/06 08:07:09;;;;;;;9.70;7.43;;;;;;;48.44;13.03;99245.47;5065962;28;20126;-70
2022/07/06 08:09:35;;;;;;;11.98;8.38;;;;;;;49.20;12.68;99257.00;5079978;28;20130;-69
2022/07/06 08:12:01;;;;;;;12.85;6.63;;;;;;;49.81;12.43;99252.84;5078601;28;20115;-72
2022/07/06 08:14:27;;;;;;;9.98;6.97;;;;;;;51.12;11.44;99257.59;5074376;28;20044;-70
2022/07/06 08:16:52;;;;;;;8.40;6.65;;;;;;;51.64;10.91;99249.88;5080281;28;20056;-75
2022/07/06 08:19:18;;;;;;;8.65;6.05;;;;;;;52.98;10.02;99258.41;5074036;28;20459;-70
2022/07/06 08:21:44;;;;;;;9.77;5.97;;;;;;;53.98;9.45;99234.09;5082390;28;20040;-71
2022/07/06 08:24:10;;;;;;;10.95;5.88;;;;;;;55.24;8.51;99249.25;5074858;28;20127;-72
2022/07/06 08:26:36;;;;;;;11.40;6.80;;;;;;;54.98;8.57;99221.44;5081248;28;20397;-72
2022/07/06 08:29:03;;;;;;;10.73;5.72;;;;;;;56.18;7.90;99244.50;5074015;28;20411;-71
2022/07/06 08:31:28;;;;;;;9.98;6.03;;;;;;;57.03;7.36;99240.59;5088805;28;20048;-71
2022/07/06 08:33:55;;;;;;;9.25;6.40;;;;;;;55.63;8.01;99245.63;5088070;28;20365;-72
2022/07/06 08:36:21;;;;;;;12.63;6.35;;;;;;;55.55;8.22;99230.09;5077935;28;20040;-72
2022/07/06 08:38:48;;;;;;;12.23;7.50;;;;;;;55.71;7.68;99234.72;5062847;28;20123;-72
2022/07/06 08:41:17;;;;;;;10.52;6.50;;;;;;;55.63;7.98;99239.13;5079453;28;20088;-72
2022/07/06 08:43:43;;;;;;;9.82;6.68;;;;;;;54.97;8.15;99232.03;5072000;28;20036;-71
2022/07/06 08:46:09;;;;;;;11.63;8.20;;;;;;;54.20;8.91;99223.53;5071756;28;20475;-72
2022/07/06 08:48:38;;;;;;;9.65;7.15;;;;;;;53.94;9.31;99227.72;5082833;28;20078;-74
2022/07/06 08:51:05;;;;;;;14.27;6.90;;;;;;;53.89;9.65;99222.59;5073000;28;20040;-71
2022/07/06 08:53:31;;;;;;;9.82;7.07;;;;;;;53.82;9.48;99211.47;5076955;28;20433;-71
2022/07/06 08:55:57;;;;;;;10.85;6.68;;;;;;;54.95;8.34;99213.84;5079603;28;20059;-71
2022/07/06 08:58:27;;;;;;;13.35;6.13;;;;;;;56.44;7.84;99227.06;5078730;28;20044;-73
2022/07/06 09:00:54;;;;;;;8.05;6.18;;;;;;;57.52;7.03;99218.97;5078225;28;20044;-71
2022/07/06 09:03:20;;;;;;;10.63;6.25;;;;;;;57.72;7.10;99207.75;5079567;28;20180;-70
2022/07/06 09:05:46;;;;;;;9.90;6.20;;;;;;;57.00;7.40;99210.16;5061054;28;20389;-73
2022/07/06 09:08:12;;;;;;;12.23;6.25;;;;;;;55.24;8.37;99200.84;5070938;28;20468;-71
2022/07/06 09:10:38;;;;;;;11.07;7.18;;;;;;;52.84;10.01;99199.22;5073004;28;20064;-71
2022/07/06 09:13:05;;;;;;;7.80;7.00;;;;;;;52.30;10.76;99201.25;5048879;28;20129;-72
2022/07/06 09:15:32;;;;;;;11.85;8.30;;;;;;;50.55;11.57;99187.25;5052094;28;20121;-72
2022/07/06 09:17:58;;;;;;;10.73;7.82;;;;;;;50.56;11.59;99190.88;5053393;28;20141;-72
2022/07/06 09:20:24;;;;;;;11.35;7.53;;;;;;;51.04;11.10;99199.53;5052148;28;20162;-73
2022/07/06 09:22:50;;;;;;;9.43;7.40;;;;;;;50.10;11.60;99166.34;5070408;28;20044;-72
2022/07/06 09:25:16;;;;;;;9.63;7.57;;;;;;;48.42;12.91;99166.16;5069083;28;20024;-73
2022/07/06 09:27:47;;;;;;;10.70;7.85;;;;;;;46.85;14.18;99177.53;5070288;28;20102;-72
2022/07/06 09:30:14;;;;;;;10.05;9.05;;;;;;;45.54;15.83;99154.59;5053695;28;20512;-72
2022/07/06 09:32:41;;;;;;;13.18;8.75;;;;;;;46.10;15.70;99170.56;5069179;28;20040;-72
2022/07/06 09:35:09;;;;;;;12.63;9.15;;;;;;;46.74;15.39;99177.59;5068420;28;20127;-71
2022/07/06 09:37:35;;;;;;;12.93;9.75;;;;;;;45.98;15.70;99149.31;5068978;28;20131;-72
2022/07/06 09:40:02;;;;;;;10.10;8.93;;;;;;;44.76;16.92;99155.66;5044344;28;20048;-73
2022/07/06 09:42:28;;;;;;;14.80;10.57;;;;;;;43.71;18.60;99169.84;5069030;28;20064;-72
2022/07/06 09:44:54;;;;;;;13.13;10.13;;;;;;;43.07;19.05;99164.88;5068947;28;20041;-73
2022/07/06 09:47:20;;;;;;;12.32;9.75;;;;;;;43.17;18.66;99165.00;5068932;28;20059;-72
2022/07/06 09:49:47;;;;;;;11.95;9.25;;;;;;;45.10;16.89;99156.16;5069145;28;20036;-71
2022/07/06 09:52:13;;;;;;;11.20;9.25;;;;;;;46.26;15.83;99172.97;5070731;28;20611;-73
2022/07/06 09:54:40;;;;;;;10.70;9.60;;;;;;;47.02;15.07;99173.81;5068083;28;20123;-71
2022/07/06 09:57:06;;;;;;;15.82;9.95;;;;;;;48.45;13.73;99173.75;5069076;28;20147;-72
2022/07/06 09:59:35;;;;;;;10.68;8.38;;;;;;;48.69;12.59;99169.84;5068429;28;20040;-71
2022/07/06 10:02:03;;;;;;;10.05;7.85;;;;;;;49.21;11.98;99139.28;5051813;28;20040;-73
2022/07/06 10:04:29;;;;;;;8.10;7.30;;;;;;;50.86;11.26;99159.53;5083890;28;20102;-72
2022/07/06 10:06:56;;;;;;;13.10;7.45;;;;;;;52.51;10.13;99168.59;5084512;28;20040;-73
2022/07/06 10:09:26;;;;;;;11.73;7.50;;;;;;;51.62;10.44;99155.28;5052204;28;20557;-71
2022/07/06 10:11:55;;;;;;;11.70;7.60;;;;;;;49.48;12.46;99162.63;5055800;28;20035;-72
2022/07/06 10:14:26;;;;;;;12.50;8.13;;;;;;;46.86;14.61;99151.03;5039498;28;20086;-73
2022/07/06 10:16:52;;;;;;;10.55;8.40;;;;;;;43.92;17.60;99136.44;5055187;28;20514;-72
2022/07/06 10:19:24;;;;;;;12.10;8.57;;;;;;;43.15;18.47;99141.38;5067884;28;20051;-69
2022/07/06 10:21:51;;;;;;;;;;;;;;;42.51;18.49;99148.25;5051968;28;20048;-72
2022/07/06 10:24:18;;;;;;;13.02;8.80;;;;;;;41.49;20.09;99118.03;5066792;28;19920;-71
2022/07/06 10:26:46;;;;;;;10.02;7.38;;;;;;;40.12;20.81;99126.50;5084463;28;20048;-70
2022/07/06 10:29:13;;;;;;;11.37;8.07;;;;;;;39.65;21.21;99134.16;5051632;28;20569;-71
2022/07/06 10:31:42;;;;;;;9.82;8.80;;;;;;;38.90;22.65;99152.88;5084300;28;20059;-71
2022/07/06 10:34:10;;;;;;;14.77;8.45;;;;;;;38.62;23.32;99152.91;5081869;28;20048;-72
2022/07/06 10:36:41;;;;;;;10.18;8.68;;;;;;;39.04;22.88;99135.78;5082838;28;20040;-73
2022/07/06 10:41:52;;;;;;;8.95;8.13;;;;;;;42.96;18.80;99145.19;5069733;28;20059;-71
2022/07/06 10:44:20;;;;;;;8.43;7.22;;;;;;;45.26;16.67;99148.13;5080609;28;20047;-72
2022/07/06 10:46:53;;;;;;;11.43;7.20;;;;;;;47.52;14.80;99150.53;5066811;28;20127;-72
2022/07/06 10:49:20;;;;;;;12.73;7.35;;;;;;;49.35;13.75;99139.84;5054530;28;20044;-74
2022/07/06 10:51:46;;;;;;;7.40;6.53;;;;;;;50.96;12.12;99127.38;5055918;28;20067;-72
2022/07/06 10:54:12;;;;;;;7.32;5.95;;;;;;;52.59;10.45;99133.91;5050136;28;20048;-71
2022/07/06 10:56:40;;;;;;;7.78;5.97;;;;;;;53.89;9.43;99137.31;5074009;28;20040;-71
2022/07/06 10:59:20;;;;;;;7.22;5.85;;;;;;;54.69;8.56;99137.16;5053935;28;20500;-72
2022/07/06 11:02:14;;;;;;;10.43;6.30;;;;;;;55.46;7.75;99133.19;5076671;28;20131;-74
2022/07/06 11:04:43;;;;;;;10.90;5.63;;;;;;;55.71;7.46;99132.13;5036989;28;20556;-74
2022/07/06 11:07:19;;;;;;;11.45;5.93;;;;;;;55.73;7.67;99133.22;5034755;28;20076;-73
2022/07/06 11:09:56;;;;;;;8.40;5.82;;;;;;;53.91;8.50;99132.81;5051143;28;20040;-73
2022/07/06 11:12:22;;;;;;;7.70;5.70;;;;;;;52.37;9.64;99123.66;5050544;28;20051;-74
2022/07/06 11:14:49;;;;;;;8.20;5.80;;;;;;;50.86;10.76;99119.91;5051026;28;20052;-72
2022/07/06 11:17:16;;;;;;;9.18;6.20;;;;;;;49.08;11.62;99117.31;5067912;28;20059;-72
2022/07/06 11:19:58;;;;;;;10.23;6.13;;;;;;;47.07;13.30;99117.94;5067800;28;20055;-72
2022/07/06 11:22:24;;;;;;;10.55;6.72;;;;;;;45.67;14.50;99105.25;5051727;28;20036;-72
2022/07/06 11:24:51;;;;;;;10.20;6.70;;;;;;;45.51;14.75;99096.47;5068794;28;20036;-72
2022/07/06 11:27:18;;;;;;;7.63;6.72;;;;;;;45.47;14.95;99100.50;5068294;28;20135;-70